sensor_id;sensor_type;location;lat;lon;timestamp;temperature;humidity
35445;DHT22;21562;49.476;6.086;2023-03-20T00:00:35;10.60;99.90
35445;DHT22;21562;49.476;6.086;2023-03-20T00:03:02;10.60;99.90
35445;DHT22;21562;49.476;6.086;2023-03-20T00:05:28;10.80;99.90
35445;DHT22;21562;49.476;6.086;2023-03-20T00:07:55;10.90;99.90
35445;DHT22;21562;49.476;6.086;2023-03-20T00:10:26;10.80;99.90
35445;DHT22;21562;49.476;6.086;2023-03-20T00:12:55;10.90;99.90
35445;DHT22;21562;49.476;6.086;2023-03-20T00:15:30;11.10;99.90
35445;DHT22;21562;49.476;6.086;2023-03-20T00:17:57;11.10;99.90
35445;DHT22;21562;49.476;6.086;2023-03-20T00:20:23;11.10;99.90
35445;DHT22;21562;49.476;6.086;2023-03-20T00:22:49;11.30;99.90
35445;DHT22;21562;49.476;6.086;2023-03-20T00:25:18;11.40;99.90
35445;DHT22;21562;49.476;6.086;2023-03-20T00:27:45;11.60;99.90
35445;DHT22;21562;49.476;6.086;2023-03-20T00:30:29;11.50;99.90
35445;DHT22;21562;49.476;6.086;2023-03-20T00:32:56;11.20;99.90
35445;DHT22;21562;49.476;6.086;2023-03-20T00:35:28;11.40;99.90
35445;DHT22;21562;49.476;6.086;2023-03-20T00:37:55;11.50;99.90
35445;DHT22;21562;49.476;6.086;2023-03-20T00:40:26;11.40;99.90
35445;DHT22;21562;49.476;6.086;2023-03-20T00:42:59;11.70;99.90
35445;DHT22;21562;49.476;6.086;2023-03-20T00:45:25;11.50;99.90
35445;DHT22;21562;49.476;6.086;2023-03-20T00:47:51;11.50;99.90
35445;DHT22;21562;49.476;6.086;2023-03-20T00:50:22;11.40;99.90
35445;DHT22;21562;49.476;6.086;2023-03-20T00:52:49;11.30;99.90
35445;DHT22;21562;49.476;6.086;2023-03-20T00:55:17;11.30;99.90
35445;DHT22;21562;49.476;6.086;2023-03-20T00:57:54;11.50;99.90
35445;DHT22;21562;49.476;6.086;2023-03-20T01:02:53;11.40;99.90
35445;DHT22;21562;49.476;6.086;2023-03-20T01:05:20;11.30;99.90
35445;DHT22;21562;49.476;6.086;2023-03-20T01:07:46;11.00;99.90
35445;DHT22;21562;49.476;6.086;2023-03-20T01:10:12;11.00;99.90
35445;DHT22;21562;49.476;6.086;2023-03-20T01:12:42;11.10;99.90
35445;DHT22;21562;49.476;6.086;2023-03-20T01:15:17;11.10;99.90
35445;DHT22;21562;49.476;6.086;2023-03-20T01:17:43;11.30;99.90
35445;DHT22;21562;49.476;6.086;2023-03-20T01:20:18;11.40;99.90
35445;DHT22;21562;49.476;6.086;2023-03-20T01:22:45;11.50;99.90
35445;DHT22;21562;49.476;6.086;2023-03-20T01:25:11;11.30;99.90
35445;DHT22;21562;49.476;6.086;2023-03-20T01:27:37;11.10;99.90
35445;DHT22;21562;49.476;6.086;2023-03-20T01:30:11;11.00;99.90
35445;DHT22;21562;49.476;6.086;2023-03-20T01:32:40;11.00;99.90
35445;DHT22;21562;49.476;6.086;2023-03-20T01:35:11;10.80;99.90
35445;DHT22;21562;49.476;6.086;2023-03-20T01:37:37;10.80;99.90
35445;DHT22;21562;49.476;6.086;2023-03-20T01:40:03;11.00;99.90
35445;DHT22;21562;49.476;6.086;2023-03-20T01:42:29;10.60;99.90
35445;DHT22;21562;49.476;6.086;2023-03-20T01:44:55;10.80;99.90
35445;DHT22;21562;49.476;6.086;2023-03-20T01:47:23;11.00;99.90
35445;DHT22;21562;49.476;6.086;2023-03-20T01:50:23;11.00;99.90
35445;DHT22;21562;49.476;6.086;2023-03-20T01:55:30;11.20;99.90
35445;DHT22;21562;49.476;6.086;2023-03-20T01:57:58;11.00;99.90
35445;DHT22;21562;49.476;6.086;2023-03-20T02:00:25;11.10;99.90
35445;DHT22;21562;49.476;6.086;2023-03-20T02:02:52;11.00;99.90
35445;DHT22;21562;49.476;6.086;2023-03-20T02:05:21;10.70;99.90
35445;DHT22;21562;49.476;6.086;2023-03-20T02:07:53;10.70;99.90
35445;DHT22;21562;49.476;6.086;2023-03-20T02:10:21;10.70;99.90
35445;DHT22;21562;49.476;6.086;2023-03-20T02:12:47;10.70;99.90
35445;DHT22;21562;49.476;6.086;2023-03-20T02:15:14;11.00;99.90
35445;DHT22;21562;49.476;6.086;2023-03-20T02:17:42;10.80;99.90
35445;DHT22;21562;49.476;6.086;2023-03-20T02:48:09;10.00;99.90
35445;DHT22;21562;49.476;6.086;2023-03-20T02:59:10;11.10;99.90
35445;DHT22;21562;49.476;6.086;2023-03-20T03:02:07;11.20;99.90
35445;DHT22;21562;49.476;6.086;2023-03-20T03:04:40;10.90;99.90
35445;DHT22;21562;49.476;6.086;2023-03-20T03:07:09;10.30;99.90
35445;DHT22;21562;49.476;6.086;2023-03-20T03:09:48;10.20;99.90
35445;DHT22;21562;49.476;6.086;2023-03-20T03:12:22;10.30;99.90
35445;DHT22;21562;49.476;6.086;2023-03-20T03:15:03;10.20;99.90
35445;DHT22;21562;49.476;6.086;2023-03-20T03:17:33;10.40;99.90
35445;DHT22;21562;49.476;6.086;2023-03-20T03:20:07;10.10;99.90
35445;DHT22;21562;49.476;6.086;2023-03-20T03:22:34;9.80;99.90
35445;DHT22;21562;49.476;6.086;2023-03-20T03:25:00;9.60;99.90
35445;DHT22;21562;49.476;6.086;2023-03-20T03:27:47;9.80;99.90
35445;DHT22;21562;49.476;6.086;2023-03-20T03:30:34;10.00;99.90
35445;DHT22;21562;49.476;6.086;2023-03-20T03:35:45;10.20;99.90
35445;DHT22;21562;49.476;6.086;2023-03-20T03:41:03;9.70;99.90
35445;DHT22;21562;49.476;6.086;2023-03-20T03:43:59;9.60;99.90
35445;DHT22;21562;49.476;6.086;2023-03-20T03:49:18;9.30;99.90
35445;DHT22;21562;49.476;6.086;2023-03-20T03:51:49;9.40;99.90
35445;DHT22;21562;49.476;6.086;2023-03-20T03:54:18;9.40;99.90
35445;DHT22;21562;49.476;6.086;2023-03-20T03:56:47;9.70;99.90
35445;DHT22;21562;49.476;6.086;2023-03-20T03:59:57;9.70;99.90
35445;DHT22;21562;49.476;6.086;2023-03-20T04:02:17;9.70;99.90
35445;DHT22;21562;49.476;6.086;2023-03-20T04:04:47;9.60;99.90
35445;DHT22;21562;49.476;6.086;2023-03-20T04:07:14;9.00;99.90
35445;DHT22;21562;49.476;6.086;2023-03-20T04:09:39;9.00;99.90
35445;DHT22;21562;49.476;6.086;2023-03-20T04:12:07;9.20;99.90
35445;DHT22;21562;49.476;6.086;2023-03-20T04:14:43;9.50;99.90
35445;DHT22;21562;49.476;6.086;2023-03-20T04:17:09;9.60;99.90
35445;DHT22;21562;49.476;6.086;2023-03-20T04:19:34;9.20;99.90
35445;DHT22;21562;49.476;6.086;2023-03-20T04:22:00;9.30;99.90
35445;DHT22;21562;49.476;6.086;2023-03-20T04:24:26;9.20;99.90
35445;DHT22;21562;49.476;6.086;2023-03-20T04:26:51;9.40;99.90
35445;DHT22;21562;49.476;6.086;2023-03-20T04:29:17;9.50;99.90
35445;DHT22;21562;49.476;6.086;2023-03-20T04:31:42;9.30;99.90
35445;DHT22;21562;49.476;6.086;2023-03-20T04:34:08;9.40;99.90
35445;DHT22;21562;49.476;6.086;2023-03-20T04:36:33;9.50;99.90
35445;DHT22;21562;49.476;6.086;2023-03-20T04:38:59;9.60;99.90
35445;DHT22;21562;49.476;6.086;2023-03-20T04:41:25;10.00;99.90
35445;DHT22;21562;49.476;6.086;2023-03-20T04:43:50;10.30;99.90
35445;DHT22;21562;49.476;6.086;2023-03-20T04:46:16;9.70;99.90
35445;DHT22;21562;49.476;6.086;2023-03-20T04:48:42;9.50;99.90
35445;DHT22;21562;49.476;6.086;2023-03-20T04:51:07;9.80;99.90
35445;DHT22;21562;49.476;6.086;2023-03-20T04:53:33;10.10;99.90
35445;DHT22;21562;49.476;6.086;2023-03-20T04:55:58;10.50;99.90
35445;DHT22;21562;49.476;6.086;2023-03-20T04:58:24;10.50;99.90
35445;DHT22;21562;49.476;6.086;2023-03-20T05:00:50;10.40;99.90
35445;DHT22;21562;49.476;6.086;2023-03-20T05:03:15;10.50;99.90
35445;DHT22;21562;49.476;6.086;2023-03-20T05:05:41;10.70;99.90
35445;DHT22;21562;49.476;6.086;2023-03-20T05:08:07;10.90;99.90
35445;DHT22;21562;49.476;6.086;2023-03-20T05:10:33;11.10;99.90
35445;DHT22;21562;49.476;6.086;2023-03-20T05:12:58;11.20;99.90
35445;DHT22;21562;49.476;6.086;2023-03-20T05:15:25;11.30;99.90
35445;DHT22;21562;49.476;6.086;2023-03-20T05:17:50;11.40;99.90
35445;DHT22;21562;49.476;6.086;2023-03-20T05:20:17;11.50;99.90
35445;DHT22;21562;49.476;6.086;2023-03-20T05:22:42;11.20;99.90
35445;DHT22;21562;49.476;6.086;2023-03-20T05:25:08;11.20;99.90
35445;DHT22;21562;49.476;6.086;2023-03-20T05:27:34;11.30;99.90
35445;DHT22;21562;49.476;6.086;2023-03-20T05:29:59;11.40;99.90
35445;DHT22;21562;49.476;6.086;2023-03-20T05:32:25;11.30;99.90
35445;DHT22;21562;49.476;6.086;2023-03-20T05:34:51;10.40;99.90
35445;DHT22;21562;49.476;6.086;2023-03-20T05:37:17;10.40;99.90
35445;DHT22;21562;49.476;6.086;2023-03-20T05:39:42;10.60;99.90
35445;DHT22;21562;49.476;6.086;2023-03-20T05:42:08;10.50;99.90
35445;DHT22;21562;49.476;6.086;2023-03-20T05:44:34;10.50;99.90
35445;DHT22;21562;49.476;6.086;2023-03-20T05:46:59;10.40;99.90
35445;DHT22;21562;49.476;6.086;2023-03-20T05:49:25;9.90;99.90
35445;DHT22;21562;49.476;6.086;2023-03-20T05:51:50;9.40;99.90
35445;DHT22;21562;49.476;6.086;2023-03-20T05:54:16;9.10;99.90
35445;DHT22;21562;49.476;6.086;2023-03-20T05:56:42;8.90;99.90
35445;DHT22;21562;49.476;6.086;2023-03-20T05:59:07;8.90;99.90
35445;DHT22;21562;49.476;6.086;2023-03-20T06:01:33;9.20;99.90
35445;DHT22;21562;49.476;6.086;2023-03-20T06:03:58;9.10;99.90
35445;DHT22;21562;49.476;6.086;2023-03-20T06:06:24;8.80;99.90
35445;DHT22;21562;49.476;6.086;2023-03-20T06:08:50;8.60;99.90
35445;DHT22;21562;49.476;6.086;2023-03-20T06:11:16;8.60;99.90
35445;DHT22;21562;49.476;6.086;2023-03-20T06:13:41;8.40;99.90
35445;DHT22;21562;49.476;6.086;2023-03-20T06:16:07;8.70;99.90
35445;DHT22;21562;49.476;6.086;2023-03-20T06:18:33;9.00;99.90
35445;DHT22;21562;49.476;6.086;2023-03-20T06:20:58;9.10;99.90
35445;DHT22;21562;49.476;6.086;2023-03-20T06:23:24;9.20;99.90
35445;DHT22;21562;49.476;6.086;2023-03-20T06:25:50;9.00;99.90
35445;DHT22;21562;49.476;6.086;2023-03-20T06:28:16;8.90;99.90
35445;DHT22;21562;49.476;6.086;2023-03-20T06:30:42;9.00;99.90
35445;DHT22;21562;49.476;6.086;2023-03-20T06:33:09;9.00;99.90
35445;DHT22;21562;49.476;6.086;2023-03-20T06:35:35;8.90;99.90
35445;DHT22;21562;49.476;6.086;2023-03-20T06:38:01;9.10;99.90
35445;DHT22;21562;49.476;6.086;2023-03-20T06:40:27;8.60;99.90
35445;DHT22;21562;49.476;6.086;2023-03-20T06:42:53;8.30;99.90
35445;DHT22;21562;49.476;6.086;2023-03-20T06:45:20;8.30;99.90
35445;DHT22;21562;49.476;6.086;2023-03-20T06:47:46;8.50;99.90
35445;DHT22;21562;49.476;6.086;2023-03-20T06:50:12;8.50;99.90
35445;DHT22;21562;49.476;6.086;2023-03-20T06:52:38;8.60;99.90
35445;DHT22;21562;49.476;6.086;2023-03-20T06:55:05;8.20;99.90
35445;DHT22;21562;49.476;6.086;2023-03-20T06:57:31;8.10;99.90
35445;DHT22;21562;49.476;6.086;2023-03-20T06:59:57;8.00;99.90
35445;DHT22;21562;49.476;6.086;2023-03-20T07:02:22;8.00;99.90
35445;DHT22;21562;49.476;6.086;2023-03-20T07:04:48;8.20;99.90
35445;DHT22;21562;49.476;6.086;2023-03-20T07:07:15;8.50;99.90
35445;DHT22;21562;49.476;6.086;2023-03-20T07:09:41;8.80;99.90
35445;DHT22;21562;49.476;6.086;2023-03-20T07:12:15;8.90;99.90
35445;DHT22;21562;49.476;6.086;2023-03-20T07:14:44;8.60;99.90
35445;DHT22;21562;49.476;6.086;2023-03-20T07:17:11;8.30;99.90
35445;DHT22;21562;49.476;6.086;2023-03-20T07:19:37;8.30;99.90
35445;DHT22;21562;49.476;6.086;2023-03-20T07:22:05;8.30;99.90
35445;DHT22;21562;49.476;6.086;2023-03-20T07:24:32;8.20;99.90
35445;DHT22;21562;49.476;6.086;2023-03-20T07:26:58;8.20;99.90
35445;DHT22;21562;49.476;6.086;2023-03-20T07:29:24;8.50;99.90
35445;DHT22;21562;49.476;6.086;2023-03-20T07:31:49;8.50;99.90
35445;DHT22;21562;49.476;6.086;2023-03-20T07:34:15;8.40;99.90
35445;DHT22;21562;49.476;6.086;2023-03-20T07:36:41;8.40;99.90
35445;DHT22;21562;49.476;6.086;2023-03-20T07:39:08;8.50;99.90
35445;DHT22;21562;49.476;6.086;2023-03-20T07:41:33;8.00;99.90
35445;DHT22;21562;49.476;6.086;2023-03-20T07:44:00;7.90;99.90
35445;DHT22;21562;49.476;6.086;2023-03-20T07:46:25;7.90;99.90
35445;DHT22;21562;49.476;6.086;2023-03-20T07:48:51;7.90;99.90
35445;DHT22;21562;49.476;6.086;2023-03-20T07:51:17;7.90;99.90
35445;DHT22;21562;49.476;6.086;2023-03-20T07:53:42;8.00;99.90
35445;DHT22;21562;49.476;6.086;2023-03-20T07:56:08;8.00;99.90
35445;DHT22;21562;49.476;6.086;2023-03-20T07:58:34;8.20;99.90
35445;DHT22;21562;49.476;6.086;2023-03-20T08:01:00;8.10;99.90
35445;DHT22;21562;49.476;6.086;2023-03-20T08:03:27;8.10;99.90
35445;DHT22;21562;49.476;6.086;2023-03-20T08:05:53;8.10;99.90
35445;DHT22;21562;49.476;6.086;2023-03-20T08:08:18;8.00;99.90
35445;DHT22;21562;49.476;6.086;2023-03-20T08:10:44;8.00;99.90
35445;DHT22;21562;49.476;6.086;2023-03-20T08:13:09;8.00;99.90
35445;DHT22;21562;49.476;6.086;2023-03-20T08:15:35;8.00;99.90
35445;DHT22;21562;49.476;6.086;2023-03-20T08:18:01;8.10;99.90
35445;DHT22;21562;49.476;6.086;2023-03-20T08:20:26;7.90;99.90
35445;DHT22;21562;49.476;6.086;2023-03-20T08:22:52;8.10;99.90
35445;DHT22;21562;49.476;6.086;2023-03-20T08:25:18;7.90;99.90
35445;DHT22;21562;49.476;6.086;2023-03-20T08:27:43;7.90;99.90
35445;DHT22;21562;49.476;6.086;2023-03-20T08:30:09;7.80;99.90
35445;DHT22;21562;49.476;6.086;2023-03-20T08:32:35;7.60;99.90
35445;DHT22;21562;49.476;6.086;2023-03-20T08:35:02;7.60;99.90
35445;DHT22;21562;49.476;6.086;2023-03-20T08:37:27;7.50;99.90
35445;DHT22;21562;49.476;6.086;2023-03-20T08:39:53;7.60;99.90
35445;DHT22;21562;49.476;6.086;2023-03-20T08:42:18;7.60;99.90
35445;DHT22;21562;49.476;6.086;2023-03-20T08:44:44;7.40;99.90
35445;DHT22;21562;49.476;6.086;2023-03-20T08:47:10;7.60;99.90
35445;DHT22;21562;49.476;6.086;2023-03-20T08:49:36;7.50;99.90
35445;DHT22;21562;49.476;6.086;2023-03-20T08:52:02;7.80;99.90
35445;DHT22;21562;49.476;6.086;2023-03-20T08:54:28;7.60;99.90
35445;DHT22;21562;49.476;6.086;2023-03-20T08:56:54;7.60;99.90
35445;DHT22;21562;49.476;6.086;2023-03-20T08:59:20;7.70;99.90
35445;DHT22;21562;49.476;6.086;2023-03-20T09:01:45;7.90;99.90
35445;DHT22;21562;49.476;6.086;2023-03-20T09:04:12;8.10;99.90
35445;DHT22;21562;49.476;6.086;2023-03-20T09:06:38;8.20;99.90
35445;DHT22;21562;49.476;6.086;2023-03-20T09:09:04;8.40;99.90
35445;DHT22;21562;49.476;6.086;2023-03-20T09:11:31;8.40;99.90
35445;DHT22;21562;49.476;6.086;2023-03-20T09:13:57;8.60;99.90
35445;DHT22;21562;49.476;6.086;2023-03-20T09:16:24;8.30;99.90
35445;DHT22;21562;49.476;6.086;2023-03-20T09:18:50;8.10;99.90
35445;DHT22;21562;49.476;6.086;2023-03-20T09:21:15;8.40;99.90
35445;DHT22;21562;49.476;6.086;2023-03-20T09:23:41;8.40;99.90
35445;DHT22;21562;49.476;6.086;2023-03-20T09:26:06;8.60;99.90
35445;DHT22;21562;49.476;6.086;2023-03-20T09:28:32;8.80;99.90
35445;DHT22;21562;49.476;6.086;2023-03-20T09:30:58;8.80;99.90
35445;DHT22;21562;49.476;6.086;2023-03-20T09:33:24;8.90;99.90
35445;DHT22;21562;49.476;6.086;2023-03-20T09:35:50;9.00;99.90
35445;DHT22;21562;49.476;6.086;2023-03-20T09:38:16;9.00;99.90
35445;DHT22;21562;49.476;6.086;2023-03-20T09:48:56;9.50;99.90
35445;DHT22;21562;49.476;6.086;2023-03-20T09:51:30;9.70;99.90
35445;DHT22;21562;49.476;6.086;2023-03-20T09:56:36;9.80;99.90
35445;DHT22;21562;49.476;6.086;2023-03-20T09:59:04;10.00;99.90
35445;DHT22;21562;49.476;6.086;2023-03-20T10:04:18;9.60;99.90
35445;DHT22;21562;49.476;6.086;2023-03-20T10:06:44;9.60;99.90
35445;DHT22;21562;49.476;6.086;2023-03-20T10:20:12;9.90;99.90
35445;DHT22;21562;49.476;6.086;2023-03-20T10:22:48;9.90;99.90
35445;DHT22;21562;49.476;6.086;2023-03-20T10:25:34;9.90;99.90
35445;DHT22;21562;49.476;6.086;2023-03-20T10:28:12;10.00;99.90
35445;DHT22;21562;49.476;6.086;2023-03-20T10:41:57;10.20;99.90
35445;DHT22;21562;49.476;6.086;2023-03-20T10:44:32;10.00;99.90
35445;DHT22;21562;49.476;6.086;2023-03-20T10:47:00;10.00;99.90
35445;DHT22;21562;49.476;6.086;2023-03-20T10:50:00;10.00;99.90
35445;DHT22;21562;49.476;6.086;2023-03-20T10:52:31;9.90;99.90
35445;DHT22;21562;49.476;6.086;2023-03-20T10:55:00;9.90;99.90
35445;DHT22;21562;49.476;6.086;2023-03-20T10:57:30;9.70;99.90
35445;DHT22;21562;49.476;6.086;2023-03-20T10:59:58;9.60;99.90
35445;DHT22;21562;49.476;6.086;2023-03-20T11:02:27;9.50;99.90
35445;DHT22;21562;49.476;6.086;2023-03-20T11:04:53;9.50;99.90
35445;DHT22;21562;49.476;6.086;2023-03-20T11:12:34;9.80;99.90
35445;DHT22;21562;49.476;6.086;2023-03-20T11:15:03;10.10;99.90
35445;DHT22;21562;49.476;6.086;2023-03-20T11:17:38;10.40;99.90
35445;DHT22;21562;49.476;6.086;2023-03-20T11:20:04;10.60;99.90
35445;DHT22;21562;49.476;6.086;2023-03-20T11:22:30;10.50;99.90
35445;DHT22;21562;49.476;6.086;2023-03-20T11:25:00;10.70;99.90
35445;DHT22;21562;49.476;6.086;2023-03-20T11:27:29;10.50;99.90
35445;DHT22;21562;49.476;6.086;2023-03-20T11:29:56;10.40;99.90
35445;DHT22;21562;49.476;6.086;2023-03-20T11:34:54;10.30;99.90
35445;DHT22;21562;49.476;6.086;2023-03-20T11:37:33;10.10;99.90
35445;DHT22;21562;49.476;6.086;2023-03-20T11:40:32;10.20;99.90
35445;DHT22;21562;49.476;6.086;2023-03-20T11:45:38;10.40;99.90
35445;DHT22;21562;49.476;6.086;2023-03-20T11:48:05;10.40;99.90
35445;DHT22;21562;49.476;6.086;2023-03-20T11:50:37;10.40;99.90
35445;DHT22;21562;49.476;6.086;2023-03-20T11:55:55;10.30;99.90
35445;DHT22;21562;49.476;6.086;2023-03-20T11:58:22;10.40;99.90
35445;DHT22;21562;49.476;6.086;2023-03-20T12:00:50;10.40;99.90
35445;DHT22;21562;49.476;6.086;2023-03-20T12:06:14;10.40;99.90
35445;DHT22;21562;49.476;6.086;2023-03-20T12:08:44;10.40;99.90
35445;DHT22;21562;49.476;6.086;2023-03-20T12:11:42;10.60;99.90
35445;DHT22;21562;49.476;6.086;2023-03-20T12:15:04;10.60;99.90
35445;DHT22;21562;49.476;6.086;2023-03-20T12:17:29;10.60;99.90
35445;DHT22;21562;49.476;6.086;2023-03-20T12:25:53;10.80;99.90
35445;DHT22;21562;49.476;6.086;2023-03-20T12:28:32;10.80;99.90
35445;DHT22;21562;49.476;6.086;2023-03-20T12:33:39;11.00;99.90
35445;DHT22;21562;49.476;6.086;2023-03-20T12:36:16;11.00;99.90
35445;DHT22;21562;49.476;6.086;2023-03-20T12:38:43;11.10;99.90
35445;DHT22;21562;49.476;6.086;2023-03-20T12:41:24;11.00;99.90
35445;DHT22;21562;49.476;6.086;2023-03-20T12:55:07;10.90;99.90
35445;DHT22;21562;49.476;6.086;2023-03-20T12:58:03;11.00;99.90
35445;DHT22;21562;49.476;6.086;2023-03-20T13:00:32;11.00;99.90
35445;DHT22;21562;49.476;6.086;2023-03-20T13:03:27;11.00;99.90
35445;DHT22;21562;49.476;6.086;2023-03-20T13:06:27;11.30;99.90
35445;DHT22;21562;49.476;6.086;2023-03-20T13:09:04;11.30;99.90
35445;DHT22;21562;49.476;6.086;2023-03-20T13:19:54;11.10;99.90
35445;DHT22;21562;49.476;6.086;2023-03-20T13:25:23;11.60;99.90
35445;DHT22;21562;49.476;6.086;2023-03-20T13:28:01;11.60;99.90
35445;DHT22;21562;49.476;6.086;2023-03-20T13:31:40;11.50;99.90
35445;DHT22;21562;49.476;6.086;2023-03-20T13:33:48;11.50;99.90
35445;DHT22;21562;49.476;6.086;2023-03-20T13:38:46;11.40;99.90
35445;DHT22;21562;49.476;6.086;2023-03-20T13:41:13;11.50;99.90
35445;DHT22;21562;49.476;6.086;2023-03-20T13:43:48;11.50;99.90
35445;DHT22;21562;49.476;6.086;2023-03-20T13:46:23;11.80;99.90
35445;DHT22;21562;49.476;6.086;2023-03-20T13:48:51;11.80;99.90
35445;DHT22;21562;49.476;6.086;2023-03-20T13:54:34;11.90;99.90
35445;DHT22;21562;49.476;6.086;2023-03-20T13:57:12;12.00;99.90
35445;DHT22;21562;49.476;6.086;2023-03-20T14:04:48;11.90;99.90
35445;DHT22;21562;49.476;6.086;2023-03-20T14:07:33;11.80;99.90
35445;DHT22;21562;49.476;6.086;2023-03-20T14:12:59;11.80;99.90
35445;DHT22;21562;49.476;6.086;2023-03-20T14:15:36;11.70;99.90
35445;DHT22;21562;49.476;6.086;2023-03-20T14:18:12;11.70;99.90
35445;DHT22;21562;49.476;6.086;2023-03-20T14:20:40;11.90;99.90
35445;DHT22;21562;49.476;6.086;2023-03-20T14:23:18;11.70;99.90
35445;DHT22;21562;49.476;6.086;2023-03-20T14:25:46;11.50;99.90
35445;DHT22;21562;49.476;6.086;2023-03-20T14:35:37;11.50;99.90
35445;DHT22;21562;49.476;6.086;2023-03-20T14:38:24;11.50;99.90
35445;DHT22;21562;49.476;6.086;2023-03-20T14:43:53;11.70;99.90
35445;DHT22;21562;49.476;6.086;2023-03-20T14:49:44;11.90;99.90
35445;DHT22;21562;49.476;6.086;2023-03-20T14:52:49;11.70;99.90
35445;DHT22;21562;49.476;6.086;2023-03-20T14:57:47;12.00;99.90
35445;DHT22;21562;49.476;6.086;2023-03-20T15:00:17;12.00;99.90
35445;DHT22;21562;49.476;6.086;2023-03-20T15:02:47;11.90;99.90
35445;DHT22;21562;49.476;6.086;2023-03-20T15:05:28;12.00;99.90
35445;DHT22;21562;49.476;6.086;2023-03-20T15:08:06;12.00;99.90
35445;DHT22;21562;49.476;6.086;2023-03-20T15:10:35;11.80;99.90
35445;DHT22;21562;49.476;6.086;2023-03-20T15:13:05;11.90;99.90
35445;DHT22;21562;49.476;6.086;2023-03-20T15:15:32;12.10;99.90
35445;DHT22;21562;49.476;6.086;2023-03-20T15:18:10;12.30;99.90
35445;DHT22;21562;49.476;6.086;2023-03-20T15:20:36;12.20;99.90
35445;DHT22;21562;49.476;6.086;2023-03-20T15:23:02;12.40;99.90
35445;DHT22;21562;49.476;6.086;2023-03-20T15:28:06;12.80;99.90
35445;DHT22;21562;49.476;6.086;2023-03-20T15:30:35;12.30;99.90
35445;DHT22;21562;49.476;6.086;2023-03-20T15:33:01;12.10;99.90
35445;DHT22;21562;49.476;6.086;2023-03-20T15:35:27;12.00;99.90
35445;DHT22;21562;49.476;6.086;2023-03-20T15:37:54;11.90;99.90
35445;DHT22;21562;49.476;6.086;2023-03-20T15:40:27;11.70;99.90
35445;DHT22;21562;49.476;6.086;2023-03-20T15:42:59;11.70;99.90
35445;DHT22;21562;49.476;6.086;2023-03-20T15:45:31;11.80;99.90
35445;DHT22;21562;49.476;6.086;2023-03-20T15:50:58;12.30;99.90
35445;DHT22;21562;49.476;6.086;2023-03-20T15:53:37;12.40;99.90
35445;DHT22;21562;49.476;6.086;2023-03-20T15:56:06;12.20;99.90
35445;DHT22;21562;49.476;6.086;2023-03-20T15:58:33;12.10;99.90
35445;DHT22;21562;49.476;6.086;2023-03-20T16:01:00;12.00;99.90
35445;DHT22;21562;49.476;6.086;2023-03-20T16:03:27;12.10;99.90
35445;DHT22;21562;49.476;6.086;2023-03-20T16:05:54;12.20;99.90
35445;DHT22;21562;49.476;6.086;2023-03-20T16:08:29;12.10;99.90
35445;DHT22;21562;49.476;6.086;2023-03-20T16:11:12;12.50;99.90
35445;DHT22;21562;49.476;6.086;2023-03-20T16:13:45;12.60;99.90
35445;DHT22;21562;49.476;6.086;2023-03-20T16:16:14;12.60;99.90
35445;DHT22;21562;49.476;6.086;2023-03-20T16:18:40;12.30;99.90
35445;DHT22;21562;49.476;6.086;2023-03-20T16:21:11;12.50;99.90
35445;DHT22;21562;49.476;6.086;2023-03-20T16:23:40;12.70;99.90
35445;DHT22;21562;49.476;6.086;2023-03-20T16:26:15;12.30;99.90
35445;DHT22;21562;49.476;6.086;2023-03-20T16:28:48;12.60;99.90
35445;DHT22;21562;49.476;6.086;2023-03-20T16:31:19;13.00;99.90
35445;DHT22;21562;49.476;6.086;2023-03-20T16:33:46;12.90;99.90
35445;DHT22;21562;49.476;6.086;2023-03-20T16:36:19;13.00;99.90
35445;DHT22;21562;49.476;6.086;2023-03-20T16:39:01;13.10;99.90
35445;DHT22;21562;49.476;6.086;2023-03-20T16:41:31;13.10;99.90
35445;DHT22;21562;49.476;6.086;2023-03-20T16:43:58;13.10;99.90
35445;DHT22;21562;49.476;6.086;2023-03-20T16:46:26;12.80;99.90
35445;DHT22;21562;49.476;6.086;2023-03-20T16:48:56;12.70;99.90
35445;DHT22;21562;49.476;6.086;2023-03-20T16:51:24;12.70;99.90
35445;DHT22;21562;49.476;6.086;2023-03-20T16:53:59;13.30;99.90
35445;DHT22;21562;49.476;6.086;2023-03-20T16:58:57;12.60;99.90
35445;DHT22;21562;49.476;6.086;2023-03-20T17:01:26;12.70;99.90
35445;DHT22;21562;49.476;6.086;2023-03-20T17:03:55;12.70;99.90
35445;DHT22;21562;49.476;6.086;2023-03-20T17:08:59;12.70;99.90
35445;DHT22;21562;49.476;6.086;2023-03-20T17:11:36;13.00;99.90
35445;DHT22;21562;49.476;6.086;2023-03-20T17:14:02;13.30;99.90
35445;DHT22;21562;49.476;6.086;2023-03-20T17:16:30;13.40;99.90
35445;DHT22;21562;49.476;6.086;2023-03-20T17:19:20;13.00;99.90
35445;DHT22;21562;49.476;6.086;2023-03-20T17:21:46;13.10;99.90
35445;DHT22;21562;49.476;6.086;2023-03-20T17:24:13;13.10;99.90
35445;DHT22;21562;49.476;6.086;2023-03-20T17:26:42;13.00;99.90
35445;DHT22;21562;49.476;6.086;2023-03-20T17:29:10;13.10;99.90
35445;DHT22;21562;49.476;6.086;2023-03-20T17:31:38;12.90;99.90
35445;DHT22;21562;49.476;6.086;2023-03-20T17:34:03;13.00;99.90
35445;DHT22;21562;49.476;6.086;2023-03-20T17:36:31;13.20;99.90
35445;DHT22;21562;49.476;6.086;2023-03-20T17:38:58;13.20;99.90
35445;DHT22;21562;49.476;6.086;2023-03-20T17:41:24;13.00;99.90
35445;DHT22;21562;49.476;6.086;2023-03-20T17:43:50;12.90;99.90
35445;DHT22;21562;49.476;6.086;2023-03-20T17:46:28;12.60;99.90
35445;DHT22;21562;49.476;6.086;2023-03-20T17:49:00;12.90;99.90
35445;DHT22;21562;49.476;6.086;2023-03-20T17:51:26;13.20;99.90
35445;DHT22;21562;49.476;6.086;2023-03-20T17:53:52;13.30;99.90
35445;DHT22;21562;49.476;6.086;2023-03-20T17:56:20;13.40;99.90
35445;DHT22;21562;49.476;6.086;2023-03-20T17:58:46;13.70;99.90
35445;DHT22;21562;49.476;6.086;2023-03-20T18:01:12;13.90;99.90
35445;DHT22;21562;49.476;6.086;2023-03-20T18:03:38;13.80;99.90
35445;DHT22;21562;49.476;6.086;2023-03-20T18:06:04;13.60;99.90
35445;DHT22;21562;49.476;6.086;2023-03-20T18:08:31;13.60;99.90
35445;DHT22;21562;49.476;6.086;2023-03-20T18:10:57;13.60;99.90
35445;DHT22;21562;49.476;6.086;2023-03-20T18:13:24;13.80;99.90
35445;DHT22;21562;49.476;6.086;2023-03-20T18:15:53;13.90;99.90
35445;DHT22;21562;49.476;6.086;2023-03-20T18:18:19;14.10;99.90
35445;DHT22;21562;49.476;6.086;2023-03-20T18:20:46;14.30;99.90
35445;DHT22;21562;49.476;6.086;2023-03-20T18:23:12;13.70;99.90
35445;DHT22;21562;49.476;6.086;2023-03-20T18:25:38;13.40;99.90
35445;DHT22;21562;49.476;6.086;2023-03-20T18:28:06;13.30;99.90
35445;DHT22;21562;49.476;6.086;2023-03-20T18:30:35;13.40;99.90
35445;DHT22;21562;49.476;6.086;2023-03-20T18:33:02;13.40;99.90
35445;DHT22;21562;49.476;6.086;2023-03-20T18:35:28;13.40;99.90
35445;DHT22;21562;49.476;6.086;2023-03-20T18:37:53;13.30;99.90
35445;DHT22;21562;49.476;6.086;2023-03-20T18:42:45;12.40;99.90
35445;DHT22;21562;49.476;6.086;2023-03-20T18:45:11;11.80;99.90
35445;DHT22;21562;49.476;6.086;2023-03-20T18:47:37;11.60;99.90